Turnerville, Georgia
Current Conditions -  °F | °C
As of 3:55 PM on Thursday 27 Nov 2014 (Local Time) from KTOC Reporting Station
Broken Clouds Broken Clouds  
Wind Chill: 42°   Ceiling: 4900
Heat Index: 46°   Visibility: 10mi
Dew Point: 26°   Wind: 8mph
Humidity: 44%   Direction: 350°N
Pressure: 30.23"   Gusts: NA
Location:  34.69°N, 83.43°W
Report Text: KTOC 272055Z AUTO 35007KT 320V030 10SM BKN049 08/M03 A3023 RMK AO2 T00801035
Loading
Personal Weather Stations






























Interactive Weather Map New forecast layout! Learn more

10-Day Weather Forecast

Advertisements
Track Severe Weather on mobile